Time;durP1;ratioP1;P1;durP2;ratioP2;P2;SDS_P1;SDS_P2;PMS_P1;PMS_P2;Temp;Humidity;BMP_temperature;BMP_pressure;BME280_temperature;BME280_humidity;BME280_pressure;Samples;Min_cycle;Max_cycle;Signal;HPM_P1;HPM_P2
2021/09/09 00:01:34;;;;;;;13.40;12.00;;;;;;;18.02;82.43;98927.25;5092546;28;20206;-73
2021/09/09 00:04:01;;;;;;;14.77;11.15;;;;;;;18.08;82.23;98923.88;5092190;28;20317;-74
2021/09/09 00:06:29;;;;;;;14.40;11.52;;;;;;;18.01;82.48;98921.94;5092653;28;20210;-73
2021/09/09 00:08:55;;;;;;;13.60;11.75;;;;;;;18.00;82.48;98928.38;5092578;28;20286;-73
2021/09/09 00:11:22;;;;;;;15.23;11.55;;;;;;;17.92;82.75;98920.97;5091817;28;20575;-74
2021/09/09 00:13:48;;;;;;;13.48;12.07;;;;;;;17.77;83.91;98922.47;5092282;28;20201;-73
2021/09/09 00:16:15;;;;;;;12.75;11.45;;;;;;;17.96;82.80;98916.09;5095916;28;20542;-74
2021/09/09 00:18:42;;;;;;;12.77;11.45;;;;;;;17.82;83.04;98923.78;5095974;28;20230;-73
2021/09/09 00:21:09;;;;;;;15.00;10.85;;;;;;;18.09;81.78;98922.88;5096345;28;20276;-72
2021/09/09 00:23:37;;;;;;;13.07;11.73;;;;;;;18.06;81.52;98914.16;5096214;28;20280;-73
2021/09/09 00:26:04;;;;;;;13.35;11.32;;;;;;;17.89;82.45;98921.28;5096622;28;20202;-73
2021/09/09 00:28:31;;;;;;;13.02;11.63;;;;;;;17.86;82.81;98919.75;5095837;28;20185;-73
2021/09/09 00:30:58;;;;;;;13.55;11.75;;;;;;;17.90;82.92;98923.00;5096136;28;20275;-73
2021/09/09 00:33:25;;;;;;;12.52;11.23;;;;;;;18.05;81.80;98921.47;5096699;28;20285;-73
2021/09/09 00:35:52;;;;;;;17.55;11.82;;;;;;;17.93;81.78;98909.06;5096480;28;20192;-73
2021/09/09 00:38:19;;;;;;;14.10;11.23;;;;;;;17.81;82.81;98910.25;5095904;28;20249;-73
2021/09/09 00:40:47;;;;;;;13.00;11.70;;;;;;;17.78;83.11;98908.69;5095890;28;20186;-73
2021/09/09 00:43:13;;;;;;;12.38;11.15;;;;;;;17.92;82.25;98910.94;5095611;28;20218;-73
2021/09/09 00:45:40;;;;;;;12.98;11.38;;;;;;;17.95;82.21;98906.19;5096258;28;20277;-73
2021/09/09 00:48:07;;;;;;;14.20;11.40;;;;;;;17.85;82.77;98903.53;5096007;28;20199;-73
2021/09/09 00:50:33;;;;;;;13.30;11.82;;;;;;;17.61;84.67;98898.63;5095480;28;20209;-72
2021/09/09 00:53:00;;;;;;;14.07;11.45;;;;;;;17.57;85.10;98899.91;5095945;28;20205;-73
2021/09/09 00:55:27;;;;;;;13.00;11.27;;;;;;;17.28;87.19;98887.31;5095792;28;20190;-74
2021/09/09 00:57:55;;;;;;;12.90;11.45;;;;;;;17.25;87.40;98890.31;5095422;28;20317;-73
2021/09/09 01:00:22;;;;;;;14.57;10.80;;;;;;;17.24;87.63;98899.50;5096089;28;20713;-74
2021/09/09 01:02:49;;;;;;;12.23;11.00;;;;;;;17.29;87.50;98889.03;5095647;28;20261;-74
2021/09/09 01:05:15;;;;;;;13.90;11.63;;;;;;;17.17;88.45;98901.09;5095627;28;20605;-74
2021/09/09 01:07:43;;;;;;;13.02;11.63;;;;;;;17.26;87.94;98892.91;5095357;28;20206;-73
2021/09/09 01:10:09;;;;;;;15.18;12.40;;;;;;;17.30;87.25;98893.47;5095639;28;20624;-73
2021/09/09 01:12:36;;;;;;;17.08;11.70;;;;;;;17.35;86.19;98890.31;5094656;28;20276;-73
2021/09/09 01:15:05;;;;;;;12.45;11.15;;;;;;;17.32;86.73;98886.03;5095248;28;20284;-73
2021/09/09 01:17:31;;;;;;;13.48;12.07;;;;;;;17.19;87.14;98883.63;5094930;28;20200;-72
2021/09/09 01:19:58;;;;;;;13.70;11.65;;;;;;;17.20;87.10;98890.75;5095439;28;20754;-73
2021/09/09 01:22:25;;;;;;;12.95;11.35;;;;;;;17.18;87.32;98892.78;5095070;28;20211;-73
2021/09/09 01:24:53;;;;;;;12.23;10.90;;;;;;;17.18;86.94;98887.34;5094722;28;20206;-72
2021/09/09 01:27:19;;;;;;;13.65;11.60;;;;;;;17.12;87.40;98885.22;5094813;28;20535;-73
2021/09/09 01:29:46;;;;;;;13.73;11.15;;;;;;;17.10;87.55;98889.97;5095053;28;20178;-73
2021/09/09 01:32:14;;;;;;;12.98;10.85;;;;;;;17.13;87.79;98889.66;5093337;28;20224;-73
2021/09/09 01:34:40;;;;;;;13.02;11.73;;;;;;;17.24;86.98;98875.00;5086933;28;20279;-73
2021/09/09 01:37:07;;;;;;;13.18;11.77;;;;;;;17.25;86.33;98887.59;5094805;28;20197;-73
2021/09/09 01:39:34;;;;;;;13.60;12.20;;;;;;;17.14;87.10;98880.50;5094686;28;20636;-74
2021/09/09 01:42:02;;;;;;;15.20;12.05;;;;;;;16.95;88.39;98880.56;5094680;28;20197;-74
2021/09/09 01:44:30;;;;;;;12.95;11.20;;;;;;;16.93;88.77;98888.84;5095015;28;20276;-74
2021/09/09 01:46:57;;;;;;;15.27;12.25;;;;;;;16.90;89.22;98885.59;5094585;28;20281;-73
2021/09/09 01:49:24;;;;;;;13.05;11.60;;;;;;;16.91;89.20;98879.13;5094945;28;20566;-73
2021/09/09 01:51:51;;;;;;;14.20;11.57;;;;;;;16.85;89.45;98883.31;5094532;28;20187;-73
2021/09/09 01:54:18;;;;;;;20.17;11.63;;;;;;;16.91;89.18;98879.13;5094233;28;20193;-73
2021/09/09 01:56:45;;;;;;;13.57;11.98;;;;;;;17.10;87.98;98879.06;5094279;28;20198;-73
2021/09/09 01:59:13;;;;;;;14.02;11.57;;;;;;;17.01;87.80;98880.81;5093818;28;20316;-72
2021/09/09 02:01:40;;;;;;;12.05;10.85;;;;;;;16.85;89.28;98877.88;5094240;28;20187;-72
2021/09/09 02:04:06;;;;;;;17.67;12.35;;;;;;;16.82;89.61;98879.03;5093935;28;20315;-72
2021/09/09 02:06:34;;;;;;;12.68;11.00;;;;;;;16.85;88.74;98880.59;5094386;28;20196;-73
2021/09/09 02:09:01;;;;;;;12.80;11.50;;;;;;;16.84;88.90;98873.41;5094076;28;20276;-72
2021/09/09 02:11:27;;;;;;;12.70;10.98;;;;;;;16.95;88.27;98875.13;5093982;28;20223;-73
2021/09/09 02:13:54;;;;;;;13.48;12.10;;;;;;;16.79;89.19;98879.28;5094177;28;20201;-73
2021/09/09 02:16:22;;;;;;;14.38;12.10;;;;;;;16.66;90.73;98874.16;5093961;28;20181;-74
2021/09/09 02:18:49;;;;;;;29.35;12.63;;;;;;;16.59;91.38;98872.16;5093557;28;20296;-73
2021/09/09 02:21:15;;;;;;;14.85;12.57;;;;;;;16.62;91.39;98871.84;5094109;28;20294;-73
2021/09/09 02:23:42;;;;;;;13.68;11.82;;;;;;;16.64;90.94;98873.44;5094218;28;20189;-73
2021/09/09 02:26:09;;;;;;;12.75;11.45;;;;;;;16.74;90.83;98873.41;5093813;28;20605;-74
2021/09/09 02:28:35;;;;;;;14.35;11.73;;;;;;;16.95;88.83;98872.38;5093677;28;20526;-73
2021/09/09 02:31:02;;;;;;;14.90;12.57;;;;;;;16.83;89.08;98878.00;5093522;28;20279;-72
2021/09/09 02:33:30;;;;;;;12.73;10.90;;;;;;;16.96;88.14;98876.81;5093479;28;20293;-73
2021/09/09 02:35:57;;;;;;;13.98;11.90;;;;;;;16.90;88.58;98882.84;5093716;28;20184;-72
2021/09/09 02:38:24;;;;;;;14.63;12.40;;;;;;;16.62;90.37;98877.28;5092532;28;20215;-73
2021/09/09 02:40:50;;;;;;;12.75;11.43;;;;;;;16.59;90.75;98885.72;5093573;28;20199;-73
2021/09/09 02:43:17;;;;;;;17.17;12.85;;;;;;;16.62;90.91;98877.28;5093587;28;20189;-73
2021/09/09 02:45:44;;;;;;;14.20;12.27;;;;;;;16.60;90.35;98880.16;5093921;28;20540;-74
2021/09/09 02:48:10;;;;;;;13.68;11.35;;;;;;;16.63;90.12;98876.28;5093319;28;20275;-73
2021/09/09 02:50:38;;;;;;;13.60;12.20;;;;;;;16.40;91.79;98889.34;5093200;28;20185;-73
2021/09/09 02:53:05;;;;;;;13.00;11.68;;;;;;;16.36;93.00;98880.59;5093327;28;20227;-74
2021/09/09 02:55:32;;;;;;;13.73;12.27;;;;;;;16.55;91.63;98889.72;5093179;28;20189;-73
2021/09/09 02:57:58;;;;;;;13.45;12.00;;;;;;;16.69;90.25;98886.59;5093442;28;20209;-73
2021/09/09 03:00:25;;;;;;;13.27;11.77;;;;;;;16.66;90.27;98884.13;5093025;28;20223;-73
2021/09/09 03:02:51;;;;;;;14.35;12.77;;;;;;;16.45;92.32;98885.16;5093238;28;20232;-73
2021/09/09 03:05:18;;;;;;;14.70;13.20;;;;;;;16.42;93.39;98874.59;5093351;28;20637;-73
2021/09/09 03:07:46;;;;;;;14.20;12.80;;;;;;;16.34;93.73;98879.88;5092735;28;20199;-73
2021/09/09 03:10:13;;;;;;;14.43;12.90;;;;;;;16.27;94.39;98871.44;5093088;28;20184;-73
2021/09/09 03:12:40;;;;;;;16.83;14.02;;;;;;;16.25;95.26;98872.59;5093491;28;20637;-73
2021/09/09 03:15:08;;;;;;;14.35;12.82;;;;;;;16.44;94.54;98879.91;5093283;28;20607;-73
2021/09/09 03:17:35;;;;;;;14.35;12.90;;;;;;;16.40;93.83;98876.59;5093376;28;20184;-73
2021/09/09 03:20:01;;;;;;;30.88;16.88;;;;;;;16.54;93.28;98875.28;5092866;28;20557;-73
2021/09/09 03:22:28;;;;;;;16.38;14.43;;;;;;;16.47;93.89;98885.88;5093219;28;20221;-73
2021/09/09 03:24:56;;;;;;;17.13;13.45;;;;;;;16.55;93.22;98882.47;5093226;28;20276;-73
2021/09/09 03:27:22;;;;;;;15.77;14.02;;;;;;;16.39;94.17;98883.06;5092926;28;20271;-74
2021/09/09 03:29:49;;;;;;;17.23;13.57;;;;;;;16.35;94.33;98884.34;5092338;28;20230;-73
2021/09/09 03:32:15;;;;;;;17.42;12.63;;;;;;;16.47;93.54;98902.19;5092957;28;20545;-73
2021/09/09 03:34:42;;;;;;;14.65;13.05;;;;;;;16.73;92.02;98890.72;5093110;28;20184;-72
2021/09/09 03:37:09;;;;;;;14.88;12.10;;;;;;;16.54;90.93;98878.00;5092541;28;20624;-72
2021/09/09 03:39:35;;;;;;;13.70;12.32;;;;;;;16.51;91.44;98881.03;5092652;28;20303;-72
2021/09/09 03:42:04;;;;;;;15.13;12.32;;;;;;;16.63;90.76;98873.56;5092768;28;20275;-73
2021/09/09 03:44:30;;;;;;;14.68;12.55;;;;;;;16.61;90.32;98873.72;5092508;28;20227;-73
2021/09/09 03:46:57;;;;;;;13.25;11.88;;;;;;;16.79;89.05;98884.72;5092705;28;20225;-73
2021/09/09 03:49:24;;;;;;;13.82;12.43;;;;;;;16.65;89.61;98882.44;5091611;28;20185;-72
2021/09/09 03:51:50;;;;;;;15.40;12.98;;;;;;;16.47;90.58;98883.16;5092383;28;20199;-73
2021/09/09 03:54:17;;;;;;;16.05;12.02;;;;;;;16.34;92.10;98874.44;5092267;28;20190;-72
2021/09/09 03:56:43;;;;;;;14.77;12.00;;;;;;;16.46;91.76;98884.19;5092643;28;20619;-73
2021/09/09 03:59:11;;;;;;;15.15;12.90;;;;;;;16.78;90.56;98888.44;5091700;28;20222;-73
2021/09/09 04:01:38;;;;;;;14.63;12.95;;;;;;;17.01;88.86;98879.97;5092675;28;20215;-73
2021/09/09 04:04:05;;;;;;;14.05;12.38;;;;;;;16.78;89.01;98874.84;5091765;28;20263;-73
2021/09/09 04:06:31;;;;;;;14.52;13.02;;;;;;;16.74;88.62;98876.13;5092193;28;20196;-73
2021/09/09 04:08:58;;;;;;;17.85;14.30;;;;;;;17.04;87.71;98876.94;5091983;28;20285;-73
2021/09/09 04:11:25;;;;;;;13.70;11.98;;;;;;;17.10;86.17;98884.50;5091540;28;20216;-73
2021/09/09 04:13:51;;;;;;;16.77;13.63;;;;;;;17.08;86.72;98881.09;5092310;28;20186;-73
2021/09/09 04:16:19;;;;;;;17.38;13.93;;;;;;;16.92;87.45;98872.69;5092065;28;20206;-73
2021/09/09 04:18:46;;;;;;;15.77;13.85;;;;;;;17.00;86.99;98870.94;5091741;28;20225;-74
2021/09/09 04:21:12;;;;;;;18.77;12.75;;;;;;;16.94;87.34;98871.53;5092158;28;20602;-73
2021/09/09 04:23:39;;;;;;;14.82;13.23;;;;;;;17.03;86.24;98869.81;5091927;28;20276;-73
2021/09/09 04:26:05;;;;;;;13.90;12.55;;;;;;;16.64;89.01;98856.25;5091855;28;20542;-74
2021/09/09 04:28:32;;;;;;;14.23;12.65;;;;;;;16.59;90.57;98842.25;5092178;28;20267;-72
2021/09/09 04:30:59;;;;;;;15.95;13.48;;;;;;;16.84;89.67;98841.63;5091693;28;20193;-72
2021/09/09 04:33:27;;;;;;;13.63;12.00;;;;;;;16.95;89.05;98851.50;5091688;28;20282;-74
2021/09/09 04:35:53;;;;;;;15.57;13.30;;;;;;;17.13;88.00;98867.03;5091579;28;20237;-74
2021/09/09 04:38:20;;;;;;;16.10;14.05;;;;;;;16.99;88.73;98857.50;5091659;28;20189;-74
2021/09/09 04:40:46;;;;;;;17.67;13.65;;;;;;;17.02;88.90;98851.75;5091372;28;20252;-73
2021/09/09 04:43:13;;;;;;;15.27;13.13;;;;;;;16.85;89.78;98862.41;5091594;28;20274;-73
2021/09/09 04:45:40;;;;;;;17.40;13.90;;;;;;;16.85;90.09;98856.13;5091478;28;20180;-73
2021/09/09 04:48:06;;;;;;;15.80;13.75;;;;;;;16.90;89.73;98863.81;5091766;28;20296;-73
2021/09/09 04:50:34;;;;;;;17.67;14.00;;;;;;;17.01;88.98;98874.53;5091167;28;20187;-74
2021/09/09 04:53:01;;;;;;;21.73;13.90;;;;;;;17.29;87.34;98870.81;5091103;28;20696;-73
2021/09/09 04:55:28;;;;;;;19.13;12.80;;;;;;;17.50;85.47;98886.06;5091284;28;20286;-73
2021/09/09 04:57:54;;;;;;;14.27;12.80;;;;;;;17.51;85.11;98876.91;5091376;28;20196;-73
2021/09/09 05:00:21;;;;;;;15.32;13.70;;;;;;;17.41;85.64;98879.69;5091518;28;20295;-72
2021/09/09 05:02:48;;;;;;;18.20;14.30;;;;;;;17.53;85.33;98872.16;5095053;28;20227;-74
2021/09/09 05:05:14;;;;;;;16.98;12.75;;;;;;;17.56;84.38;98871.84;5095449;28;20192;-72
2021/09/09 05:07:43;;;;;;;16.00;13.13;;;;;;;17.45;84.89;98862.00;5095739;28;20535;-74
2021/09/09 05:10:12;;;;;;;14.35;12.23;;;;;;;17.41;84.67;98870.63;5095137;28;20228;-74
2021/09/09 05:12:39;;;;;;;19.65;14.40;;;;;;;17.17;85.51;98872.03;5095306;28;20209;-73
2021/09/09 05:15:06;;;;;;;17.92;13.18;;;;;;;17.32;84.56;98885.13;5095830;28;20280;-72
2021/09/09 05:17:35;;;;;;;14.32;12.88;;;;;;;17.38;84.55;98873.66;5095130;28;20259;-73
2021/09/09 05:20:02;;;;;;;15.43;13.20;;;;;;;17.36;84.35;98868.38;5094983;28;20555;-74
2021/09/09 05:22:32;;;;;;;19.10;13.63;;;;;;;17.39;84.46;98876.25;5095333;28;20190;-73
2021/09/09 05:25:11;;;;;;;22.13;13.98;;;;;;;17.20;85.33;98873.59;5095594;28;20191;-75
2021/09/09 05:27:37;;;;;;;16.10;13.43;;;;;;;17.27;85.14;98882.88;5095748;28;20199;-74
2021/09/09 05:30:05;;;;;;;17.70;14.23;;;;;;;17.34;84.87;98881.25;5095220;28;20210;-74
2021/09/09 05:32:33;;;;;;;16.52;13.18;;;;;;;17.48;84.17;98878.06;5095739;28;20296;-74
2021/09/09 05:35:00;;;;;;;15.05;12.32;;;;;;;17.60;83.62;98900.47;5095394;28;20187;-75
2021/09/09 05:37:26;;;;;;;17.08;13.85;;;;;;;17.55;84.09;98907.38;5095794;28;20675;-74
2021/09/09 05:39:54;;;;;;;18.55;13.70;;;;;;;17.42;85.10;98897.69;5095425;28;20265;-74
2021/09/09 05:42:24;;;;;;;14.57;13.00;;;;;;;17.28;85.95;98909.94;5095225;28;20191;-74
2021/09/09 05:44:51;;;;;;;33.25;14.80;;;;;;;17.25;86.03;98917.53;5093487;28;20198;-74
2021/09/09 05:47:20;;;;;;;18.95;15.35;;;;;;;17.36;85.22;98911.91;5094931;28;20222;-75
2021/09/09 05:49:47;;;;;;;15.20;13.15;;;;;;;17.52;84.11;98900.38;5095302;28;20237;-75
2021/09/09 05:52:13;;;;;;;15.52;13.80;;;;;;;17.58;83.48;98916.09;5093668;28;20232;-73
2021/09/09 05:54:40;;;;;;;18.98;13.95;;;;;;;17.72;83.02;98909.31;5094204;28;20208;-75
2021/09/09 05:57:07;;;;;;;16.38;13.80;;;;;;;17.80;82.22;98903.13;5095710;28;20195;-74
2021/09/09 05:59:35;;;;;;;19.42;13.18;;;;;;;17.82;82.18;98904.72;5095187;28;20237;-74
2021/09/09 06:02:01;;;;;;;17.55;14.13;;;;;;;17.93;81.90;98909.06;5094552;28;20203;-74
2021/09/09 06:04:34;;;;;;;14.52;13.00;;;;;;;18.11;81.17;98922.72;5094614;28;20314;-75
2021/09/09 06:07:02;;;;;;;17.10;12.55;;;;;;;18.21;79.92;98918.06;5095394;28;20555;-73
2021/09/09 06:09:29;;;;;;;16.20;12.50;;;;;;;18.08;80.93;98923.03;5095268;28;20206;-74
2021/09/09 06:11:55;;;;;;;14.98;12.98;;;;;;;18.21;80.09;98922.66;5094040;28;20285;-74
2021/09/09 06:14:22;;;;;;;16.40;14.18;;;;;;;18.43;79.38;98916.75;5094370;28;20197;-74
2021/09/09 06:16:50;;;;;;;23.27;15.38;;;;;;;18.44;79.35;98907.56;5095190;28;20539;-74
2021/09/09 06:19:17;;;;;;;19.92;14.98;;;;;;;18.62;78.80;98914.88;5089846;28;20246;-73
2021/09/09 06:21:43;;;;;;;21.33;14.35;;;;;;;18.67;78.64;98912.53;5093018;28;20218;-74
2021/09/09 06:24:10;;;;;;;21.27;15.55;;;;;;;18.85;77.45;98909.81;5093876;28;20695;-74
2021/09/09 06:26:37;;;;;;;20.15;13.15;;;;;;;18.89;76.92;98917.50;5094134;28;20191;-74
2021/09/09 06:29:03;;;;;;;20.65;14.40;;;;;;;19.13;75.95;98919.56;5094399;28;20199;-74
2021/09/09 06:31:30;;;;;;;19.40;14.50;;;;;;;19.17;75.48;98918.22;5094661;28;20179;-75
2021/09/09 06:33:58;;;;;;;18.52;12.50;;;;;;;19.22;75.52;98919.59;5094376;28;20524;-75
2021/09/09 06:36:25;;;;;;;21.15;13.38;;;;;;;19.38;74.15;98917.00;5094609;28;20195;-75
2021/09/09 06:38:51;;;;;;;19.33;13.07;;;;;;;19.32;74.23;98925.81;5093681;28;20275;-74
2021/09/09 06:41:18;;;;;;;16.53;13.30;;;;;;;19.51;74.00;98919.25;5086305;28;20904;-74
2021/09/09 06:43:44;;;;;;;19.40;13.00;;;;;;;19.70;72.94;98926.38;5092008;28;20517;-75
2021/09/09 06:46:11;;;;;;;17.10;13.30;;;;;;;19.88;71.72;98931.75;5093760;28;20425;-74
2021/09/09 06:48:38;;;;;;;16.93;12.13;;;;;;;19.94;71.53;98931.06;5093447;28;20449;-75
2021/09/09 06:51:06;;;;;;;22.73;13.50;;;;;;;19.96;71.50;98929.88;5094048;28;20513;-75
2021/09/09 06:53:33;;;;;;;21.30;11.70;;;;;;;20.15;70.77;98917.00;5094492;28;20785;-73
2021/09/09 06:55:59;;;;;;;18.00;11.77;;;;;;;20.19;70.54;98924.69;5093531;28;20469;-74
2021/09/09 06:58:26;;;;;;;20.40;12.13;;;;;;;20.39;69.54;98929.81;5093192;28;20419;-74
2021/09/09 07:00:53;;;;;;;20.40;12.20;;;;;;;20.65;68.90;98931.63;5093658;28;20478;-74
2021/09/09 07:03:20;;;;;;;14.37;11.93;;;;;;;20.99;67.61;98931.44;5093375;28;20472;-73
2021/09/09 07:05:46;;;;;;;15.57;10.87;;;;;;;21.02;67.52;98929.19;5093675;28;20487;-75
2021/09/09 07:08:14;;;;;;;15.00;10.20;;;;;;;20.92;67.74;98942.22;5093477;28;20434;-74
2021/09/09 07:10:41;;;;;;;14.43;11.50;;;;;;;20.88;68.30;98940.00;5094998;28;20449;-74
2021/09/09 07:13:08;;;;;;;18.73;10.93;;;;;;;20.62;69.17;98935.53;5093111;28;20911;-74
2021/09/09 07:15:34;;;;;;;24.33;13.13;;;;;;;20.58;69.63;98947.84;5093466;28;20434;-74
2021/09/09 07:18:01;;;;;;;21.13;12.07;;;;;;;20.72;69.31;98951.78;5093831;28;20446;-74
2021/09/09 07:20:28;;;;;;;16.20;11.67;;;;;;;20.94;69.03;98958.44;5093435;28;20504;-74
2021/09/09 07:22:54;;;;;;;16.07;11.57;;;;;;;20.90;68.93;98960.69;5093673;28;20534;-73
2021/09/09 07:25:22;;;;;;;22.07;17.67;;;;;;;21.06;68.83;98957.09;5093334;28;20514;-73
2021/09/09 07:27:49;;;;;;;15.47;13.67;;;;;;;21.19;68.58;98978.47;5093872;28;20461;-74
2021/09/09 07:30:16;;;;;;;14.93;10.40;;;;;;;21.23;68.89;98979.81;5092296;28;20426;-73
2021/09/09 07:32:42;;;;;;;14.90;11.93;;;;;;;21.14;69.58;98973.53;5092390;28;20787;-74
2021/09/09 07:35:10;;;;;;;11.47;9.80;;;;;;;21.07;70.21;98975.22;5093407;28;20422;-75
2021/09/09 07:37:37;;;;;;;13.23;11.37;;;;;;;21.16;70.04;98984.28;5095074;28;20531;-74
2021/09/09 07:40:04;;;;;;;12.40;9.50;;;;;;;21.20;69.95;98988.38;5099882;28;20892;-73
2021/09/09 07:42:33;;;;;;;11.23;10.07;;;;;;;21.34;69.98;98975.88;5091820;28;20501;-73
2021/09/09 07:45:00;;;;;;;12.20;9.97;;;;;;;21.65;68.54;98986.97;5092584;28;20437;-74
2021/09/09 07:47:26;;;;;;;9.53;8.63;;;;;;;21.67;68.97;98982.19;5093013;28;20784;-75
2021/09/09 07:49:53;;;;;;;10.90;9.20;;;;;;;22.04;68.08;98980.66;5093236;28;20906;-74
2021/09/09 07:52:20;;;;;;;11.77;9.30;;;;;;;21.97;68.59;98985.16;5092435;28;20525;-74
2021/09/09 07:54:46;;;;;;;13.50;10.83;;;;;;;22.00;68.59;98988.41;5090378;28;20428;-73
2021/09/09 07:57:13;;;;;;;10.43;9.40;;;;;;;22.05;69.55;98979.66;5092723;28;20521;-74
2021/09/09 07:59:41;;;;;;;15.30;9.90;;;;;;;22.24;69.05;98986.63;5092396;28;20436;-74
2021/09/09 08:02:07;;;;;;;13.23;10.00;;;;;;;21.98;70.21;98982.25;5091154;28;20466;-74
2021/09/09 08:04:34;;;;;;;14.80;10.37;;;;;;;21.70;71.87;98984.56;5092278;28;20561;-73
2021/09/09 08:07:01;;;;;;;11.50;10.00;;;;;;;21.60;72.54;98989.41;5091677;28;20454;-74
2021/09/09 08:09:28;;;;;;;14.23;9.70;;;;;;;21.85;71.82;98981.94;5092670;28;20433;-73
2021/09/09 08:11:55;;;;;;;17.63;11.10;;;;;;;22.15;70.56;98982.16;5092905;28;20416;-73
2021/09/09 08:14:22;;;;;;;10.90;9.87;;;;;;;22.01;71.08;98989.25;5092673;28;20482;-73
2021/09/09 08:16:50;;;;;;;15.53;10.80;;;;;;;22.27;70.34;98980.75;5092530;28;20934;-73
2021/09/09 08:19:16;;;;;;;11.30;9.60;;;;;;;22.48;69.88;98982.91;5092600;28;20422;-73
2021/09/09 08:21:43;;;;;;;12.60;9.30;;;;;;;22.77;68.55;98979.44;5092356;28;20793;-74
2021/09/09 08:24:10;;;;;;;14.90;9.37;;;;;;;22.70;69.45;98975.69;5092463;28;20468;-74
2021/09/09 08:26:36;;;;;;;10.87;9.77;;;;;;;22.98;68.44;98976.00;5093242;28;20456;-73
2021/09/09 08:29:07;;;;;;;10.37;9.03;;;;;;;23.20;67.94;98974.31;5092696;28;20858;-73
2021/09/09 08:31:34;;;;;;;10.03;9.03;;;;;;;23.36;66.92;98977.94;5092823;28;20533;-73
2021/09/09 08:34:05;;;;;;;11.13;9.50;;;;;;;23.13;67.87;98989.81;5093379;28;20862;-74
2021/09/09 08:36:32;;;;;;;10.90;9.80;;;;;;;22.89;68.59;98975.22;5095129;28;20774;-73
2021/09/09 08:38:59;;;;;;;10.37;9.23;;;;;;;22.90;69.21;98976.06;5096804;28;20494;-74
2021/09/09 08:41:26;;;;;;;13.63;9.30;;;;;;;23.05;68.76;98981.66;5096936;28;20624;-74
2021/09/09 08:43:54;;;;;;;12.60;8.53;;;;;;;22.90;69.50;98993.38;5096452;28;20449;-74
2021/09/09 08:46:20;;;;;;;11.70;9.23;;;;;;;;;;5096893;28;20945;-74
2021/09/09 08:48:49;;;;;;;10.50;9.40;;;;;;;23.03;70.08;99000.19;5096577;28;20892;-74
2021/09/09 08:51:22;;;;;;;10.67;9.17;;;;;;;23.10;70.24;98996.53;5096843;28;20437;-75
2021/09/09 08:53:50;;;;;;;12.83;9.37;;;;;;;22.93;71.09;99003.16;5096776;28;20425;-73
2021/09/09 08:56:17;;;;;;;8.57;7.67;;;;;;;22.49;74.66;99006.53;5096565;28;20924;-73
2021/09/09 08:58:44;;;;;;;11.77;8.63;;;;;;;22.22;77.00;99016.09;5096173;28;20521;-74
2021/09/09 09:01:12;;;;;;;10.03;8.73;;;;;;;21.93;80.29;99016.69;5095962;28;20501;-73
2021/09/09 09:03:44;;;;;;;9.50;8.60;;;;;;;21.99;81.01;99010.50;5096116;28;20477;-74
2021/09/09 09:06:32;;;;;;;11.80;8.40;;;;;;;22.09;81.08;99019.38;5096144;28;20457;-74
2021/09/09 09:09:00;;;;;;;10.17;8.40;;;;;;;22.15;81.42;99010.44;5077960;28;20445;-72
2021/09/09 09:11:29;;;;;;;11.70;9.43;;;;;;;22.52;79.41;99017.13;5095528;28;20505;-75
2021/09/09 09:13:57;;;;;;;11.90;8.57;;;;;;;22.52;79.28;99019.03;5096011;28;20541;-73
2021/09/09 09:16:25;;;;;;;9.80;8.20;;;;;;;22.79;78.12;99025.91;5095954;28;20420;-73
2021/09/09 09:18:52;;;;;;;11.33;10.13;;;;;;;22.72;78.35;99031.25;5096161;28;20428;-74
2021/09/09 09:21:21;;;;;;;10.33;9.00;;;;;;;22.98;77.53;99030.06;5096351;28;21000;-75
2021/09/09 09:23:51;;;;;;;11.97;10.17;;;;;;;23.00;77.54;99031.63;5096557;28;20461;-75
2021/09/09 09:26:18;;;;;;;13.67;9.80;;;;;;;22.73;77.46;99029.38;5096307;28;20454;-73
2021/09/09 09:28:47;;;;;;;10.80;9.70;;;;;;;22.73;76.97;99023.91;5095926;28;20414;-75
2021/09/09 09:31:16;;;;;;;11.10;8.80;;;;;;;23.21;75.04;99025.44;5095609;28;20524;-73
2021/09/09 09:33:45;;;;;;;12.90;10.90;;;;;;;23.57;73.29;99032.19;5095765;28;20494;-74
2021/09/09 09:36:17;;;;;;;15.60;11.67;;;;;;;23.73;72.30;99030.09;5095957;28;20469;-73
2021/09/09 09:38:44;;;;;;;12.53;9.30;;;;;;;24.29;69.48;99029.66;5095345;28;20518;-73
2021/09/09 09:41:12;;;;;;;11.63;9.20;;;;;;;24.64;67.73;99026.31;5095525;28;20472;-73
2021/09/09 09:43:49;;;;;;;11.13;9.40;;;;;;;24.91;65.93;99035.72;5095319;28;20446;-73
2021/09/09 09:46:24;;;;;;;10.67;9.13;;;;;;;24.93;65.07;99025.38;5095381;28;20428;-73
2021/09/09 09:48:51;;;;;;;10.93;8.30;;;;;;;25.14;64.63;99028.09;5095061;28;20536;-73
2021/09/09 09:51:41;;;;;;;8.67;7.33;;;;;;;25.10;64.94;99031.47;5095699;28;20466;-74
2021/09/09 09:54:09;;;;;;;10.40;9.50;;;;;;;25.06;65.56;99027.41;5095137;28;20462;-74
2021/09/09 09:56:38;;;;;;;9.90;7.13;;;;;;;25.09;65.58;99025.09;5095548;28;20505;-74
2021/09/09 09:59:06;;;;;;;11.67;9.83;;;;;;;24.89;66.40;99029.56;5095488;28;20442;-73
2021/09/09 10:01:34;;;;;;;8.57;7.73;;;;;;;25.07;66.56;99031.84;5095195;28;21030;-74
2021/09/09 10:04:03;;;;;;;13.70;8.37;;;;;;;24.89;67.63;99027.66;5094642;28;20472;-74
2021/09/09 10:06:33;;;;;;;18.67;8.53;;;;;;;24.77;68.78;99037.47;5094496;28;20448;-74
2021/09/09 10:09:00;;;;;;;10.73;8.53;;;;;;;24.58;70.00;99025.19;5094421;28;20437;-74
2021/09/09 10:11:27;;;;;;;12.63;8.17;;;;;;;24.41;70.28;99027.28;5094512;28;20514;-74
2021/09/09 10:13:56;;;;;;;13.40;9.50;;;;;;;24.27;71.01;99030.91;5094867;28;20477;-72
2021/09/09 10:16:24;;;;;;;15.30;9.30;;;;;;;24.41;71.04;99042.94;5094824;28;20563;-74
2021/09/09 10:18:52;;;;;;;10.10;8.33;;;;;;;24.42;70.86;99039.13;5094680;28;20445;-73
2021/09/09 10:21:38;;;;;;;7.77;6.53;;;;;;;24.31;71.97;99041.34;5094787;28;20554;-74
2021/09/09 10:24:14;;;;;;;10.20;7.40;;;;;;;24.35;71.06;99050.91;5094375;28;20430;-74
2021/09/09 10:26:41;;;;;;;7.03;6.40;;;;;;;24.35;70.57;99053.69;5093885;28;20469;-73
2021/09/09 10:29:45;;;;;;;9.20;6.20;;;;;;;24.41;70.30;99052.03;5093736;28;20453;-73
2021/09/09 10:32:47;;;;;;;9.23;5.37;;;;;;;24.26;69.98;99057.56;5094107;28;20501;-74
2021/09/09 10:35:32;;;;;;;11.40;5.53;;;;;;;24.20;69.24;99050.06;5094212;28;20877;-74
2021/09/09 10:38:24;;;;;;;6.30;4.00;;;;;;;24.21;68.10;99045.41;5093793;28;20422;-73
2021/09/09 10:40:50;;;;;;;9.63;5.77;;;;;;;24.28;67.83;99047.19;5093845;28;20426;-74
2021/09/09 10:43:46;;;;;;;6.43;5.27;;;;;;;24.63;66.68;99044.72;5094522;28;20534;-74
2021/09/09 10:46:16;;;;;;;5.40;4.17;;;;;;;24.90;65.94;99045.88;5094340;28;20541;-74
2021/09/09 10:48:45;;;;;;;4.97;4.10;;;;;;;25.06;65.81;99049.44;5094119;28;20471;-72
2021/09/09 10:51:17;;;;;;;7.23;4.47;;;;;;;25.34;64.82;99055.88;5093664;28;20476;-73
2021/09/09 10:53:52;;;;;;;5.57;4.63;;;;;;;25.52;64.50;99052.66;5093664;28;20465;-74
2021/09/09 10:56:20;;;;;;;14.00;5.77;;;;;;;25.64;63.99;99054.88;5094066;28;20410;-74
2021/09/09 10:58:55;;;;;;;6.57;4.87;;;;;;;25.77;63.69;99049.47;5092945;28;20442;-73
2021/09/09 11:01:23;;;;;;;5.53;5.03;;;;;;;26.03;62.88;99056.25;5093510;28;20481;-73
2021/09/09 11:03:51;;;;;;;8.60;5.93;;;;;;;26.36;61.65;99054.53;5092195;28;20470;-74
2021/09/09 11:06:19;;;;;;;4.80;3.93;;;;;;;26.07;62.72;99047.34;5093132;28;20843;-73
2021/09/09 11:08:49;;;;;;;7.03;4.30;;;;;;;25.67;63.89;99051.72;5092825;28;20533;-73
2021/09/09 11:11:19;;;;;;;4.77;4.17;;;;;;;25.91;63.50;99056.81;5081111;28;20926;-74
2021/09/09 11:13:47;;;;;;;4.37;3.90;;;;;;;26.44;61.73;99047.16;5094027;28;20487;-74
2021/09/09 11:16:20;;;;;;;4.53;4.13;;;;;;;26.74;60.31;99043.03;5093402;28;20448;-74
2021/09/09 11:18:49;;;;;;;4.23;3.83;;;;;;;26.44;60.71;99047.16;5093762;28;20417;-74
2021/09/09 11:21:18;;;;;;;4.23;3.70;;;;;;;26.38;61.22;99043.28;5093162;28;20484;-73
2021/09/09 11:23:45;;;;;;;3.87;3.33;;;;;;;26.56;60.14;99040.84;5092860;28;20446;-73
2021/09/09 11:26:38;;;;;;;3.90;3.60;;;;;;;26.01;61.10;99031.63;5091287;28;20915;-74